sensor_id;sensor_type;location;lat;lon;timestamp;pressure;altitude;pressure_sealevel;temperature;humidity
83894;BME280;73920;51.902;6.374;2024-01-25T00:01:34;102665.06;;;8.14;78.54
83894;BME280;73920;51.902;6.374;2024-01-25T00:04:00;102638.69;;;7.94;77.97
83894;BME280;73920;51.902;6.374;2024-01-25T00:06:26;102676.66;;;8.08;78.14
83894;BME280;73920;51.902;6.374;2024-01-25T00:08:52;102667.00;;;8.03;78.52
83894;BME280;73920;51.902;6.374;2024-01-25T00:11:19;102671.50;;;7.98;78.26
83894;BME280;73920;51.902;6.374;2024-01-25T00:13:45;102669.81;;;7.89;78.46
83894;BME280;73920;51.902;6.374;2024-01-25T00:16:11;102677.91;;;7.83;78.91
83894;BME280;73920;51.902;6.374;2024-01-25T00:18:37;102670.03;;;7.77;78.92
83894;BME280;73920;51.902;6.374;2024-01-25T00:21:04;102676.28;;;7.73;79.13
83894;BME280;73920;51.902;6.374;2024-01-25T00:23:30;102671.94;;;7.64;78.93
83894;BME280;73920;51.902;6.374;2024-01-25T00:25:56;102680.03;;;7.57;79.45
83894;BME280;73920;51.902;6.374;2024-01-25T00:28:23;102671.28;;;7.47;79.70
83894;BME280;73920;51.902;6.374;2024-01-25T00:30:49;102680.25;;;7.40;79.85
83894;BME280;73920;51.902;6.374;2024-01-25T00:33:15;102683.84;;;7.34;80.06
83894;BME280;73920;51.902;6.374;2024-01-25T00:35:42;102691.03;;;7.28;80.18
83894;BME280;73920;51.902;6.374;2024-01-25T00:38:09;102681.34;;;7.22;79.82
83894;BME280;73920;51.902;6.374;2024-01-25T00:40:36;102687.63;;;7.15;80.16
83894;BME280;73920;51.902;6.374;2024-01-25T00:43:04;102683.25;;;7.11;80.66
83894;BME280;73920;51.902;6.374;2024-01-25T00:45:31;102693.00;;;7.09;80.32
83894;BME280;73920;51.902;6.374;2024-01-25T00:47:59;102693.06;;;7.05;80.52
83894;BME280;73920;51.902;6.374;2024-01-25T00:50:26;102685.13;;;7.00;80.87
83894;BME280;73920;51.902;6.374;2024-01-25T00:52:53;102689.59;;;6.97;80.87
83894;BME280;73920;51.902;6.374;2024-01-25T00:55:20;102691.41;;;6.93;81.08
83894;BME280;73920;51.902;6.374;2024-01-25T00:57:47;102678.25;;;6.79;81.25
83894;BME280;73920;51.902;6.374;2024-01-25T01:00:14;102696.81;;;6.85;81.37
83894;BME280;73920;51.902;6.374;2024-01-25T01:02:42;102690.63;;;6.80;81.17
83894;BME280;73920;51.902;6.374;2024-01-25T01:05:10;102704.00;;;6.76;81.26
83894;BME280;73920;51.902;6.374;2024-01-25T01:07:38;102711.13;;;6.72;81.00
83894;BME280;73920;51.902;6.374;2024-01-25T01:10:05;102715.56;;;6.66;81.23
83894;BME280;73920;51.902;6.374;2024-01-25T01:12:31;102718.25;;;6.63;81.06
83894;BME280;73920;51.902;6.374;2024-01-25T01:14:58;102720.09;;;6.58;81.01
83894;BME280;73920;51.902;6.374;2024-01-25T01:17:24;102735.19;;;6.53;81.39
83894;BME280;73920;51.902;6.374;2024-01-25T01:19:50;102729.88;;;6.51;81.33
83894;BME280;73920;51.902;6.374;2024-01-25T01:22:16;102727.25;;;6.48;81.47
83894;BME280;73920;51.902;6.374;2024-01-25T01:24:43;102729.97;;;6.43;81.40
83894;BME280;73920;51.902;6.374;2024-01-25T01:27:09;102739.72;;;6.37;81.48
83894;BME280;73920;51.902;6.374;2024-01-25T01:29:35;102734.47;;;6.32;81.60
83894;BME280;73920;51.902;6.374;2024-01-25T01:32:01;102745.97;;;6.30;81.58
83894;BME280;73920;51.902;6.374;2024-01-25T01:34:28;102741.56;;;6.26;81.51
83894;BME280;73920;51.902;6.374;2024-01-25T01:36:54;102743.38;;;6.21;81.63
83894;BME280;73920;51.902;6.374;2024-01-25T01:39:20;102746.94;;;6.17;81.71
83894;BME280;73920;51.902;6.374;2024-01-25T01:41:47;102740.78;;;6.13;82.18
83894;BME280;73920;51.902;6.374;2024-01-25T01:44:14;102754.94;;;6.12;82.01
83894;BME280;73920;51.902;6.374;2024-01-25T01:46:40;102750.53;;;6.08;81.89
83894;BME280;73920;51.902;6.374;2024-01-25T01:49:10;102755.00;;;6.03;81.99
83894;BME280;73920;51.902;6.374;2024-01-25T01:51:38;102762.09;;;5.98;81.86
83894;BME280;73920;51.902;6.374;2024-01-25T01:54:07;102762.13;;;5.97;81.91
83894;BME280;73920;51.902;6.374;2024-01-25T01:56:34;102755.03;;;5.96;81.83
83894;BME280;73920;51.902;6.374;2024-01-25T01:59:05;102760.34;;;5.91;81.82
83894;BME280;73920;51.902;6.374;2024-01-25T02:01:34;102766.56;;;5.87;81.80
83894;BME280;73920;51.902;6.374;2024-01-25T02:04:00;102764.78;;;5.81;82.03
83894;BME280;73920;51.902;6.374;2024-01-25T02:06:27;102762.16;;;5.75;81.91
83894;BME280;73920;51.902;6.374;2024-01-25T02:08:53;102768.38;;;5.71;82.04
83894;BME280;73920;51.902;6.374;2024-01-25T02:11:20;102756.00;;;5.66;82.16
83894;BME280;73920;51.902;6.374;2024-01-25T02:13:46;102764.88;;;5.60;82.05
83894;BME280;73920;51.902;6.374;2024-01-25T02:16:12;102771.06;;;5.55;82.09
83894;BME280;73920;51.902;6.374;2024-01-25T02:18:39;102772.00;;;5.49;82.24
83894;BME280;73920;51.902;6.374;2024-01-25T02:21:07;102767.56;;;5.43;82.39
83894;BME280;73920;51.902;6.374;2024-01-25T02:23:33;102774.66;;;5.38;82.78
83894;BME280;73920;51.902;6.374;2024-01-25T02:25:59;102775.56;;;5.34;82.32
83894;BME280;73920;51.902;6.374;2024-01-25T02:28:25;102769.34;;;5.32;82.60
83894;BME280;73920;51.902;6.374;2024-01-25T02:30:52;102764.94;;;5.30;82.71
83894;BME280;73920;51.902;6.374;2024-01-25T02:33:18;102740.25;;;5.13;82.69
83894;BME280;73920;51.902;6.374;2024-01-25T02:35:45;102762.28;;;5.25;82.84
83894;BME280;73920;51.902;6.374;2024-01-25T02:38:11;102748.16;;;5.14;83.01
83894;BME280;73920;51.902;6.374;2024-01-25T02:40:39;102765.84;;;5.24;82.87
83894;BME280;73920;51.902;6.374;2024-01-25T02:43:05;102757.91;;;5.24;83.65
83894;BME280;73920;51.902;6.374;2024-01-25T02:45:31;102757.91;;;5.23;83.55
83894;BME280;73920;51.902;6.374;2024-01-25T02:47:58;102766.72;;;5.26;83.57
83894;BME280;73920;51.902;6.374;2024-01-25T02:50:24;102769.37;;;5.29;83.89
83894;BME280;73920;51.902;6.374;2024-01-25T02:52:51;102762.28;;;5.28;84.07
83894;BME280;73920;51.902;6.374;2024-01-25T02:55:20;102770.25;;;5.30;83.68
83894;BME280;73920;51.902;6.374;2024-01-25T02:57:46;102770.25;;;5.30;84.25
83894;BME280;73920;51.902;6.374;2024-01-25T03:00:13;102784.38;;;5.29;84.48
83894;BME280;73920;51.902;6.374;2024-01-25T03:02:40;102772.91;;;5.28;84.52
83894;BME280;73920;51.902;6.374;2024-01-25T03:05:07;102742.00;;;5.15;84.42
83894;BME280;73920;51.902;6.374;2024-01-25T03:07:33;102777.34;;;5.28;84.74
83894;BME280;73920;51.902;6.374;2024-01-25T03:09:59;102781.75;;;5.27;84.43
83894;BME280;73920;51.902;6.374;2024-01-25T03:12:25;102780.88;;;5.27;84.65
83894;BME280;73920;51.902;6.374;2024-01-25T03:14:52;102778.22;;;5.24;84.58
83894;BME280;73920;51.902;6.374;2024-01-25T03:17:18;102778.22;;;5.22;84.72
83894;BME280;73920;51.902;6.374;2024-01-25T03:19:44;102774.69;;;5.20;84.11
83894;BME280;73920;51.902;6.374;2024-01-25T03:22:10;102769.41;;;5.17;84.30
83894;BME280;73920;51.902;6.374;2024-01-25T03:24:39;102786.19;;;5.16;84.20
83894;BME280;73920;51.902;6.374;2024-01-25T03:27:05;102790.59;;;5.14;84.64
83894;BME280;73920;51.902;6.374;2024-01-25T03:29:32;102784.44;;;5.12;84.50
83894;BME280;73920;51.902;6.374;2024-01-25T03:31:58;102785.31;;;5.10;84.30
83894;BME280;73920;51.902;6.374;2024-01-25T03:34:24;102782.66;;;5.07;84.79
83894;BME280;73920;51.902;6.374;2024-01-25T03:36:50;102783.53;;;5.04;84.32
83894;BME280;73920;51.902;6.374;2024-01-25T03:39:17;102786.19;;;5.01;84.71
83894;BME280;73920;51.902;6.374;2024-01-25T03:41:43;102795.91;;;5.01;84.55
83894;BME280;73920;51.902;6.374;2024-01-25T03:44:09;102787.97;;;4.99;84.75
83894;BME280;73920;51.902;6.374;2024-01-25T03:46:35;102788.84;;;5.00;84.73
83894;BME280;73920;51.902;6.374;2024-01-25T03:49:02;102795.03;;;5.00;84.46
83894;BME280;73920;51.902;6.374;2024-01-25T03:51:28;102787.97;;;4.96;84.63
83894;BME280;73920;51.902;6.374;2024-01-25T03:53:54;102787.97;;;4.96;84.80
83894;BME280;73920;51.902;6.374;2024-01-25T03:56:20;102792.37;;;4.97;85.01
83894;BME280;73920;51.902;6.374;2024-01-25T03:58:46;102792.37;;;4.97;85.44
83894;BME280;73920;51.902;6.374;2024-01-25T04:01:13;102800.34;;;4.95;85.28
83894;BME280;73920;51.902;6.374;2024-01-25T04:03:40;102795.91;;;4.93;85.54
83894;BME280;73920;51.902;6.374;2024-01-25T04:06:07;102791.50;;;4.90;84.95
83894;BME280;73920;51.902;6.374;2024-01-25T04:08:33;102787.09;;;4.88;85.33
83894;BME280;73920;51.902;6.374;2024-01-25T04:10:59;102775.59;;;4.68;85.20
83894;BME280;73920;51.902;6.374;2024-01-25T04:13:25;102803.88;;;4.81;85.37
83894;BME280;73920;51.902;6.374;2024-01-25T04:15:51;102800.34;;;4.77;85.25
83894;BME280;73920;51.902;6.374;2024-01-25T04:18:18;102802.13;;;4.77;85.35
83894;BME280;73920;51.902;6.374;2024-01-25T04:20:44;102810.06;;;4.74;85.11
83894;BME280;73920;51.902;6.374;2024-01-25T04:23:10;102823.28;;;4.71;84.92
83894;BME280;73920;51.902;6.374;2024-01-25T04:25:37;102818.00;;;4.66;85.07
83894;BME280;73920;51.902;6.374;2024-01-25T04:28:04;102819.75;;;4.61;85.18
83894;BME280;73920;51.902;6.374;2024-01-25T04:30:31;102824.16;;;4.58;85.39
83894;BME280;73920;51.902;6.374;2024-01-25T04:32:57;102817.94;;;4.53;84.92
83894;BME280;73920;51.902;6.374;2024-01-25T04:35:23;102818.81;;;4.48;85.37
83894;BME280;73920;51.902;6.374;2024-01-25T04:37:49;102816.16;;;4.45;84.94
83894;BME280;73920;51.902;6.374;2024-01-25T04:40:16;102808.22;;;4.42;85.32
83894;BME280;73920;51.902;6.374;2024-01-25T04:42:42;102801.16;;;4.38;85.15
83894;BME280;73920;51.902;6.374;2024-01-25T04:45:08;102810.88;;;4.36;85.01
83894;BME280;73920;51.902;6.374;2024-01-25T04:47:37;102811.75;;;4.34;84.90
83894;BME280;73920;51.902;6.374;2024-01-25T04:50:05;102817.03;;;4.29;84.90
83894;BME280;73920;51.902;6.374;2024-01-25T04:52:31;102823.19;;;4.27;84.83
83894;BME280;73920;51.902;6.374;2024-01-25T04:54:58;102817.88;;;4.24;85.28
83894;BME280;73920;51.902;6.374;2024-01-25T04:57:24;102812.56;;;4.21;85.24
83894;BME280;73920;51.902;6.374;2024-01-25T04:59:50;102819.66;;;4.19;85.30
83894;BME280;73920;51.902;6.374;2024-01-25T05:02:16;102830.22;;;4.14;85.12
83894;BME280;73920;51.902;6.374;2024-01-25T05:04:42;102831.06;;;4.10;85.19
83894;BME280;73920;51.902;6.374;2024-01-25T05:07:09;102826.66;;;4.08;84.91
83894;BME280;73920;51.902;6.374;2024-01-25T05:09:35;102829.31;;;4.05;85.33
83894;BME280;73920;51.902;6.374;2024-01-25T05:12:01;102831.06;;;4.01;85.52
83894;BME280;73920;51.902;6.374;2024-01-25T05:14:27;102822.22;;;3.97;85.44
83894;BME280;73920;51.902;6.374;2024-01-25T05:16:54;102820.41;;;3.92;85.29
83894;BME280;73920;51.902;6.374;2024-01-25T05:19:20;102813.31;;;3.88;85.44
83894;BME280;73920;51.902;6.374;2024-01-25T05:21:46;102807.13;;;3.81;85.31
83894;BME280;73920;51.902;6.374;2024-01-25T05:24:12;102820.31;;;3.77;85.34
83894;BME280;73920;51.902;6.374;2024-01-25T05:26:39;102814.13;;;3.73;85.44
83894;BME280;73920;51.902;6.374;2024-01-25T05:29:05;102817.63;;;3.69;85.66
83894;BME280;73920;51.902;6.374;2024-01-25T05:31:31;102817.63;;;3.66;85.28
83894;BME280;73920;51.902;6.374;2024-01-25T05:33:57;102820.25;;;3.60;85.63
83894;BME280;73920;51.902;6.374;2024-01-25T05:36:23;102819.34;;;3.58;85.29
83894;BME280;73920;51.902;6.374;2024-01-25T05:38:50;102821.12;;;3.58;84.93
83894;BME280;73920;51.902;6.374;2024-01-25T05:41:16;102821.97;;;3.54;85.44
83894;BME280;73920;51.902;6.374;2024-01-25T05:43:42;102822.84;;;3.50;85.91
83894;BME280;73920;51.902;6.374;2024-01-25T05:46:08;102822.78;;;3.45;85.10
83894;BME280;73920;51.902;6.374;2024-01-25T05:48:35;102832.50;;;3.43;84.70
83894;BME280;73920;51.902;6.374;2024-01-25T05:51:01;102821.88;;;3.38;84.78
83894;BME280;73920;51.902;6.374;2024-01-25T05:53:27;102830.66;;;3.34;85.33
83894;BME280;73920;51.902;6.374;2024-01-25T05:55:53;102839.44;;;3.30;85.34
83894;BME280;73920;51.902;6.374;2024-01-25T05:58:19;102843.81;;;3.27;85.39
83894;BME280;73920;51.902;6.374;2024-01-25T06:00:46;102857.03;;;3.25;84.97
83894;BME280;73920;51.902;6.374;2024-01-25T06:03:12;102860.53;;;3.21;85.64
83894;BME280;73920;51.902;6.374;2024-01-25T06:05:38;102859.63;;;3.19;85.59
83894;BME280;73920;51.902;6.374;2024-01-25T06:08:05;102859.56;;;3.15;84.92
83894;BME280;73920;51.902;6.374;2024-01-25T06:10:31;102868.38;;;3.12;85.40
83894;BME280;73920;51.902;6.374;2024-01-25T06:12:57;102864.81;;;3.09;86.00
83894;BME280;73920;51.902;6.374;2024-01-25T06:15:23;102863.94;;;3.07;85.76
83894;BME280;73920;51.902;6.374;2024-01-25T06:17:49;102865.66;;;3.03;85.64
83894;BME280;73920;51.902;6.374;2024-01-25T06:20:16;102876.22;;;3.03;85.85
83894;BME280;73920;51.902;6.374;2024-01-25T06:22:42;102872.66;;;3.01;85.53
83894;BME280;73920;51.902;6.374;2024-01-25T06:25:09;102880.59;;;3.01;85.50
83894;BME280;73920;51.902;6.374;2024-01-25T06:27:36;102870.03;;;3.01;85.53
83894;BME280;73920;51.902;6.374;2024-01-25T06:30:02;102865.62;;;3.00;85.86
83894;BME280;73920;51.902;6.374;2024-01-25T06:32:28;102870.94;;;3.03;85.25
83894;BME280;73920;51.902;6.374;2024-01-25T06:34:55;102874.44;;;3.02;85.85
83894;BME280;73920;51.902;6.374;2024-01-25T06:37:21;102869.12;;;2.99;85.60
83894;BME280;73920;51.902;6.374;2024-01-25T06:39:47;102877.06;;;2.99;85.83
83894;BME280;73920;51.902;6.374;2024-01-25T06:42:14;102875.28;;;2.98;85.49
83894;BME280;73920;51.902;6.374;2024-01-25T06:44:40;102876.16;;;2.97;85.03
83894;BME280;73920;51.902;6.374;2024-01-25T06:47:06;102878.78;;;2.94;85.87
83894;BME280;73920;51.902;6.374;2024-01-25T06:49:33;102874.37;;;2.93;86.02
83894;BME280;73920;51.902;6.374;2024-01-25T06:51:59;102879.66;;;2.93;86.01
83894;BME280;73920;51.902;6.374;2024-01-25T06:54:25;102884.91;;;2.91;85.77
83894;BME280;73920;51.902;6.374;2024-01-25T06:56:51;102883.13;;;2.90;86.00
83894;BME280;73920;51.902;6.374;2024-01-25T06:59:17;102875.22;;;2.89;85.88
83894;BME280;73920;51.902;6.374;2024-01-25T07:01:44;102873.41;;;2.86;85.57
83894;BME280;73920;51.902;6.374;2024-01-25T07:04:10;102870.78;;;2.85;85.87
83894;BME280;73920;51.902;6.374;2024-01-25T07:06:36;102851.25;;;2.71;85.56
83894;BME280;73920;51.902;6.374;2024-01-25T07:09:02;102890.09;;;2.81;86.15
83894;BME280;73920;51.902;6.374;2024-01-25T07:11:29;102892.75;;;2.81;86.04
83894;BME280;73920;51.902;6.374;2024-01-25T07:13:55;102891.88;;;2.82;86.25
83894;BME280;73920;51.902;6.374;2024-01-25T07:16:21;102887.47;;;2.81;85.85
83894;BME280;73920;51.902;6.374;2024-01-25T07:18:48;102885.72;;;2.84;86.01
83894;BME280;73920;51.902;6.374;2024-01-25T07:21:14;102883.09;;;2.86;86.08
83894;BME280;73920;51.902;6.374;2024-01-25T07:23:40;102882.22;;;2.87;85.56
83894;BME280;73920;51.902;6.374;2024-01-25T07:26:06;102889.28;;;2.88;86.02
83894;BME280;73920;51.902;6.374;2024-01-25T07:28:33;102878.72;;;2.89;86.33
83894;BME280;73920;51.902;6.374;2024-01-25T07:30:59;102878.72;;;2.89;86.51
83894;BME280;73920;51.902;6.374;2024-01-25T07:33:25;102876.09;;;2.88;85.66
83894;BME280;73920;51.902;6.374;2024-01-25T07:35:51;102881.38;;;2.91;86.37
83894;BME280;73920;51.902;6.374;2024-01-25T07:38:17;102883.13;;;2.90;85.30
83894;BME280;73920;51.902;6.374;2024-01-25T07:40:44;102894.63;;;2.92;85.60
83894;BME280;73920;51.902;6.374;2024-01-25T07:43:10;102900.81;;;2.97;85.54
83894;BME280;73920;51.902;6.374;2024-01-25T07:45:36;102899.97;;;3.02;85.97
83894;BME280;73920;51.902;6.374;2024-01-25T07:48:03;102907.06;;;3.06;85.23
83894;BME280;73920;51.902;6.374;2024-01-25T07:50:29;102896.56;;;3.10;85.67
83894;BME280;73920;51.902;6.374;2024-01-25T07:52:56;102900.09;;;3.15;85.28
83894;BME280;73920;51.902;6.374;2024-01-25T07:55:22;102907.19;;;3.19;84.93
83894;BME280;73920;51.902;6.374;2024-01-25T07:57:48;102904.56;;;3.22;84.96
83894;BME280;73920;51.902;6.374;2024-01-25T08:00:15;102906.41;;;3.28;85.28
83894;BME280;73920;51.902;6.374;2024-01-25T08:02:43;102908.19;;;3.33;85.37
83894;BME280;73920;51.902;6.374;2024-01-25T08:05:09;102913.56;;;3.39;86.13
83894;BME280;73920;51.902;6.374;2024-01-25T08:07:36;102901.22;;;3.44;85.54
83894;BME280;73920;51.902;6.374;2024-01-25T08:10:03;102879.12;;;3.35;85.77
83894;BME280;73920;51.902;6.374;2024-01-25T08:12:30;102899.56;;;3.56;85.61
83894;BME280;73920;51.902;6.374;2024-01-25T08:14:56;102911.03;;;3.59;85.15
83894;BME280;73920;51.902;6.374;2024-01-25T08:17:22;102913.75;;;3.65;85.45
83894;BME280;73920;51.902;6.374;2024-01-25T08:19:48;102921.72;;;3.71;84.86
83894;BME280;73920;51.902;6.374;2024-01-25T08:22:15;102924.41;;;3.80;85.62
83894;BME280;73920;51.902;6.374;2024-01-25T08:24:41;102927.13;;;3.89;85.46
83894;BME280;73920;51.902;6.374;2024-01-25T08:27:07;102923.62;;;3.98;85.66
83894;BME280;73920;51.902;6.374;2024-01-25T08:29:34;102910.44;;;4.06;84.84
83894;BME280;73920;51.902;6.374;2024-01-25T08:32:00;102911.37;;;4.11;85.46
83894;BME280;73920;51.902;6.374;2024-01-25T08:34:26;102929.03;;;4.16;85.23
83894;BME280;73920;51.902;6.374;2024-01-25T08:36:52;102928.19;;;4.20;85.52
83894;BME280;73920;51.902;6.374;2024-01-25T08:39:18;102927.31;;;4.24;85.48
83894;BME280;73920;51.902;6.374;2024-01-25T08:41:45;102925.59;;;4.29;84.96
83894;BME280;73920;51.902;6.374;2024-01-25T08:44:12;102924.72;;;4.33;85.33
83894;BME280;73920;51.902;6.374;2024-01-25T08:46:38;102925.63;;;4.40;85.31
83894;BME280;73920;51.902;6.374;2024-01-25T08:49:04;102936.25;;;4.47;85.98
83894;BME280;73920;51.902;6.374;2024-01-25T08:51:30;102907.09;;;4.41;85.62
83894;BME280;73920;51.902;6.374;2024-01-25T08:53:57;102927.47;;;4.67;85.76
83894;BME280;73920;51.902;6.374;2024-01-25T08:56:23;102931.06;;;4.78;85.23
83894;BME280;73920;51.902;6.374;2024-01-25T08:58:49;102932.88;;;4.88;85.06
83894;BME280;73920;51.902;6.374;2024-01-25T09:01:15;102911.66;;;4.91;84.97
83894;BME280;73920;51.902;6.374;2024-01-25T09:03:41;102916.12;;;5.06;84.96
83894;BME280;73920;51.902;6.374;2024-01-25T09:06:08;102914.34;;;5.15;84.94
83894;BME280;73920;51.902;6.374;2024-01-25T09:08:34;102916.12;;;5.22;84.98
83894;BME280;73920;51.902;6.374;2024-01-25T09:11:00;102921.44;;;5.31;84.84
83894;BME280;73920;51.902;6.374;2024-01-25T09:13:26;102921.44;;;5.40;84.53
83894;BME280;73920;51.902;6.374;2024-01-25T09:15:53;102928.50;;;5.51;84.56
83894;BME280;73920;51.902;6.374;2024-01-25T09:18:19;102921.41;;;5.46;84.56
83894;BME280;73920;51.902;6.374;2024-01-25T09:20:45;102946.19;;;5.70;84.50
83894;BME280;73920;51.902;6.374;2024-01-25T09:23:11;102938.22;;;5.77;84.39
83894;BME280;73920;51.902;6.374;2024-01-25T09:25:37;102941.75;;;5.85;84.39
83894;BME280;73920;51.902;6.374;2024-01-25T09:28:05;102932.03;;;5.92;84.22
83894;BME280;73920;51.902;6.374;2024-01-25T09:30:30;102935.56;;;6.00;84.02
83894;BME280;73920;51.902;6.374;2024-01-25T09:32:57;102936.41;;;6.08;83.94
83894;BME280;73920;51.902;6.374;2024-01-25T09:35:23;102934.63;;;6.16;83.87
83894;BME280;73920;51.902;6.374;2024-01-25T09:37:49;102946.97;;;6.26;83.81
83894;BME280;73920;51.902;6.374;2024-01-25T09:40:16;102937.25;;;6.31;83.49
83894;BME280;73920;51.902;6.374;2024-01-25T09:42:42;102930.16;;;6.36;83.58
83894;BME280;73920;51.902;6.374;2024-01-25T09:45:09;102923.03;;;6.43;83.51
83894;BME280;73920;51.902;6.374;2024-01-25T09:47:37;102918.56;;;6.50;83.38
83894;BME280;73920;51.902;6.374;2024-01-25T09:50:04;102915.88;;;6.56;83.16
83894;BME280;73920;51.902;6.374;2024-01-25T09:52:31;102916.72;;;6.62;83.08
83894;BME280;73920;51.902;6.374;2024-01-25T09:54:59;102923.78;;;6.66;82.77
83894;BME280;73920;51.902;6.374;2024-01-25T09:57:28;102937.94;;;6.73;82.86
83894;BME280;73920;51.902;6.374;2024-01-25T09:59:56;102941.44;;;6.81;82.58
83894;BME280;73920;51.902;6.374;2024-01-25T10:02:22;102931.66;;;6.84;82.76
83894;BME280;73920;51.902;6.374;2024-01-25T10:04:50;102930.78;;;6.90;82.61
83894;BME280;73920;51.902;6.374;2024-01-25T10:07:16;102942.25;;;6.95;82.49
83894;BME280;73920;51.902;6.374;2024-01-25T10:09:43;102933.34;;;6.99;82.31
83894;BME280;73920;51.902;6.374;2024-01-25T10:12:09;102932.47;;;7.00;82.34
83894;BME280;73920;51.902;6.374;2024-01-25T10:14:35;102932.44;;;7.05;82.31
83894;BME280;73920;51.902;6.374;2024-01-25T10:17:01;102920.88;;;7.12;82.21
83894;BME280;73920;51.902;6.374;2024-01-25T10:19:28;102925.22;;;7.22;81.99
83894;BME280;73920;51.902;6.374;2024-01-25T10:21:55;102926.03;;;7.31;81.86
83894;BME280;73920;51.902;6.374;2024-01-25T10:24:21;102933.12;;;7.34;81.38
83894;BME280;73920;51.902;6.374;2024-01-25T10:26:49;102907.50;;;7.22;81.36
83894;BME280;73920;51.902;6.374;2024-01-25T10:29:15;102928.66;;;7.34;81.66
83894;BME280;73920;51.902;6.374;2024-01-25T10:31:42;102926.94;;;7.33;81.70
83894;BME280;73920;51.902;6.374;2024-01-25T10:34:13;102920.72;;;7.31;81.71
83894;BME280;73920;51.902;6.374;2024-01-25T10:36:40;102924.28;;;7.30;81.34
83894;BME280;73920;51.902;6.374;2024-01-25T10:39:08;102922.50;;;7.32;81.76
83894;BME280;73920;51.902;6.374;2024-01-25T10:41:35;102920.69;;;7.34;81.83
83894;BME280;73920;51.902;6.374;2024-01-25T10:44:01;102915.38;;;7.37;81.64
83894;BME280;73920;51.902;6.374;2024-01-25T10:46:29;102904.66;;;7.42;81.64
83894;BME280;73920;51.902;6.374;2024-01-25T10:48:58;102902.84;;;7.46;81.19
83894;BME280;73920;51.902;6.374;2024-01-25T10:51:25;102914.34;;;7.51;81.50
83894;BME280;73920;51.902;6.374;2024-01-25T10:53:52;102907.19;;;7.59;81.41
83894;BME280;73920;51.902;6.374;2024-01-25T10:56:19;102911.56;;;7.66;81.33
83894;BME280;73920;51.902;6.374;2024-01-25T10:58:46;102913.25;;;7.73;81.29
83894;BME280;73920;51.902;6.374;2024-01-25T11:01:12;102912.31;;;7.80;81.14
83894;BME280;73920;51.902;6.374;2024-01-25T11:03:39;102887.34;;;7.90;80.60
83894;BME280;73920;51.902;6.374;2024-01-25T11:06:06;102889.03;;;7.99;80.76
83894;BME280;73920;51.902;6.374;2024-01-25T11:08:32;102880.94;;;8.06;80.67
83894;BME280;73920;51.902;6.374;2024-01-25T11:10:59;102887.97;;;8.12;80.87
83894;BME280;73920;51.902;6.374;2024-01-25T11:13:28;102894.13;;;8.18;80.56
83894;BME280;73920;51.902;6.374;2024-01-25T11:15:55;102877.16;;;8.25;80.41
83894;BME280;73920;51.902;6.374;2024-01-25T11:18:25;102867.31;;;8.33;80.06
83894;BME280;73920;51.902;6.374;2024-01-25T11:20:51;102869.94;;;8.36;79.91
83894;BME280;73920;51.902;6.374;2024-01-25T11:23:18;102861.00;;;8.40;79.74
83894;BME280;73920;51.902;6.374;2024-01-25T11:25:45;102865.44;;;8.42;79.64
83894;BME280;73920;51.902;6.374;2024-01-25T11:28:14;102866.28;;;8.44;79.52
83894;BME280;73920;51.902;6.374;2024-01-25T11:30:41;102866.28;;;8.44;79.58
83894;BME280;73920;51.902;6.374;2024-01-25T11:33:08;102860.09;;;8.42;79.67
83894;BME280;73920;51.902;6.374;2024-01-25T11:35:34;102862.81;;;8.38;79.41
83894;BME280;73920;51.902;6.374;2024-01-25T11:38:00;102853.94;;;8.36;79.39
83894;BME280;73920;51.902;6.374;2024-01-25T11:40:27;102845.09;;;8.34;79.53
83894;BME280;73920;51.902;6.374;2024-01-25T11:42:53;102836.25;;;8.29;79.32
83894;BME280;73920;51.902;6.374;2024-01-25T11:45:20;102833.72;;;8.20;79.29
83894;BME280;73920;51.902;6.374;2024-01-25T11:47:46;102834.66;;;8.15;79.54
83894;BME280;73920;51.902;6.374;2024-01-25T11:50:13;102827.63;;;8.09;79.88
83894;BME280;73920;51.902;6.374;2024-01-25T11:52:39;102827.63;;;8.09;80.04
83894;BME280;73920;51.902;6.374;2024-01-25T11:55:10;102818.69;;;8.13;79.92
83894;BME280;73920;51.902;6.374;2024-01-25T11:57:37;102816.78;;;8.21;79.92
83894;BME280;73920;51.902;6.374;2024-01-25T12:00:09;102819.34;;;8.32;79.65
83894;BME280;73920;51.902;6.374;2024-01-25T12:02:37;102813.13;;;8.33;79.38
83894;BME280;73920;51.902;6.374;2024-01-25T12:05:04;102826.37;;;8.39;78.63
83894;BME280;73920;51.902;6.374;2024-01-25T12:07:31;102813.91;;;8.43;78.79
83894;BME280;73920;51.902;6.374;2024-01-25T12:12:29;102818.19;;;8.53;78.67
83894;BME280;73920;51.902;6.374;2024-01-25T12:14:59;102815.47;;;8.57;78.33
83894;BME280;73920;51.902;6.374;2024-01-25T12:17:27;102803.91;;;8.57;78.33
83894;BME280;73920;51.902;6.374;2024-01-25T12:19:58;102793.19;;;8.60;78.39
83894;BME280;73920;51.902;6.374;2024-01-25T12:22:27;102791.31;;;8.68;78.67
83894;BME280;73920;51.902;6.374;2024-01-25T12:24:54;102791.19;;;8.72;78.03
83894;BME280;73920;51.902;6.374;2024-01-25T12:27:25;102772.63;;;8.66;77.81
83894;BME280;73920;51.902;6.374;2024-01-25T12:29:53;102778.09;;;8.59;77.76
83894;BME280;73920;51.902;6.374;2024-01-25T12:32:20;102782.59;;;8.54;78.13
83894;BME280;73920;51.902;6.374;2024-01-25T12:37:23;102771.94;;;8.55;78.35
83894;BME280;73920;51.902;6.374;2024-01-25T12:39:51;102784.19;;;8.65;78.54
83894;BME280;73920;51.902;6.374;2024-01-25T12:42:19;102786.69;;;8.76;78.67
83894;BME280;73920;51.902;6.374;2024-01-25T12:44:45;102786.63;;;8.80;77.91
83894;BME280;73920;51.902;6.374;2024-01-25T12:47:11;102780.41;;;8.81;77.50
83894;BME280;73920;51.902;6.374;2024-01-25T12:49:41;102783.06;;;8.81;77.66
83894;BME280;73920;51.902;6.374;2024-01-25T12:52:12;102791.12;;;8.77;77.29
83894;BME280;73920;51.902;6.374;2024-01-25T12:54:39;102794.69;;;8.76;77.79
83894;BME280;73920;51.902;6.374;2024-01-25T12:57:05;102786.75;;;8.74;78.19
83894;BME280;73920;51.902;6.374;2024-01-25T12:59:33;102780.53;;;8.74;77.92
83894;BME280;73920;51.902;6.374;2024-01-25T13:01:59;102783.19;;;8.72;77.61